createdAt,value
2022-12-17T00:01:52.160Z,22.38
2022-12-17T00:04:37.762Z,25.70
2022-12-17T00:07:23.156Z,24.10
2022-12-17T00:10:08.272Z,21.50
2022-12-17T00:12:56.649Z,22.95
2022-12-17T00:15:43.022Z,24.25
2022-12-17T00:18:28.386Z,22.70
2022-12-17T00:21:18.615Z,23.60
2022-12-17T00:24:04.464Z,23.75
2022-12-17T00:26:52.585Z,22.85
2022-12-17T00:29:38.191Z,22.70
2022-12-17T00:32:23.901Z,19.48
2022-12-17T00:35:09.385Z,19.95
2022-12-17T00:37:55.537Z,25.63
2022-12-17T00:40:41.829Z,24.38
2022-12-17T00:43:30.238Z,24.35
2022-12-17T00:46:16.468Z,23.50
2022-12-17T00:49:02.074Z,22.90
2022-12-17T00:51:48.581Z,24.52
2022-12-17T00:54:34.092Z,20.55
2022-12-17T00:57:19.559Z,22.90
2022-12-17T01:00:05.181Z,26.58
2022-12-17T01:02:50.732Z,23.52
2022-12-17T01:05:36.324Z,19.80
2022-12-17T01:08:30.404Z,19.63
2022-12-17T01:11:24.483Z,18.10
2022-12-17T01:14:12.517Z,24.25
2022-12-17T01:17:00.033Z,24.55
2022-12-17T01:19:45.388Z,28.52
2022-12-17T01:22:30.893Z,28.20
2022-12-17T01:25:16.345Z,21.27
2022-12-17T01:28:01.794Z,22.33
2022-12-17T01:30:47.284Z,22.80
2022-12-17T01:33:32.614Z,23.20
2022-12-17T01:36:20.782Z,24.20
2022-12-17T01:39:06.179Z,19.80
2022-12-17T01:41:51.629Z,31.60
2022-12-17T01:44:59.040Z,24.02
2022-12-17T01:47:46.159Z,24.48
2022-12-17T01:50:34.905Z,23.92
2022-12-17T01:53:22.748Z,22.35
2022-12-17T01:56:08.210Z,24.73
2022-12-17T01:58:54.302Z,21.95
2022-12-17T02:01:41.755Z,22.92
2022-12-17T02:04:28.693Z,20.70
2022-12-17T02:07:37.106Z,20.65
2022-12-17T02:10:33.163Z,19.17
2022-12-17T02:13:31.175Z,24.23
2022-12-17T02:16:36.610Z,24.27
2022-12-17T02:19:46.115Z,22.52
2022-12-17T02:23:00.343Z,21.60
2022-12-17T02:26:27.145Z,19.55
2022-12-17T02:29:14.267Z,23.60
2022-12-17T02:32:02.861Z,21.27
2022-12-17T02:34:48.469Z,21.65
2022-12-17T02:37:33.993Z,21.45
2022-12-17T02:40:19.663Z,23.40
2022-12-17T02:43:06.682Z,25.90
2022-12-17T02:45:52.890Z,20.02
2022-12-17T02:48:38.311Z,20.75
2022-12-17T02:51:24.214Z,16.10
2022-12-17T02:54:12.220Z,21.65
2022-12-17T02:56:57.836Z,22.52
2022-12-17T02:59:43.327Z,18.80
2022-12-17T03:02:28.692Z,24.35
2022-12-17T03:05:42.866Z,19.35
2022-12-17T03:08:19.113Z,20.73
2022-12-17T03:11:04.793Z,17.73
2022-12-17T03:13:49.912Z,20.85
2022-12-17T03:16:37.899Z,21.40
2022-12-17T03:19:23.900Z,25.13
2022-12-17T03:22:09.221Z,22.33
2022-12-17T03:24:54.947Z,26.85
2022-12-17T03:27:40.253Z,19.38
2022-12-17T03:30:25.721Z,23.15
2022-12-17T03:33:11.096Z,22.45
2022-12-17T03:35:56.553Z,25.25
2022-12-17T03:38:43.975Z,23.08
2022-12-17T03:41:29.570Z,23.55
2022-12-17T03:44:14.986Z,23.30
2022-12-17T03:47:00.476Z,23.20
2022-12-17T03:49:45.790Z,21.15
2022-12-17T03:52:31.252Z,21.67
2022-12-17T03:55:16.663Z,24.73
2022-12-17T03:58:02.185Z,27.23
2022-12-17T04:00:47.670Z,20.75
2022-12-17T04:03:33.358Z,26.17
2022-12-17T04:06:19.142Z,33.47
2022-12-17T04:09:04.640Z,21.55
2022-12-17T04:11:50.304Z,18.38
2022-12-17T04:14:35.405Z,21.73
2022-12-17T04:17:20.822Z,24.75
2022-12-17T04:20:06.286Z,18.05
2022-12-17T04:22:51.397Z,23.05
2022-12-17T04:25:36.903Z,22.50
2022-12-17T04:28:22.511Z,24.23
2022-12-17T04:31:08.081Z,25.23
2022-12-17T04:33:55.856Z,22.25
2022-12-17T04:36:41.294Z,22.88
2022-12-17T04:39:26.725Z,29.50
2022-12-17T04:42:12.256Z,26.85
2022-12-17T04:44:57.683Z,21.83
2022-12-17T04:47:42.891Z,25.80
2022-12-17T04:50:28.475Z,21.23
2022-12-17T04:53:25.806Z,21.67
2022-12-17T04:56:13.800Z,23.17
2022-12-17T04:59:01.753Z,23.17
2022-12-17T05:01:49.865Z,24.33
2022-12-17T05:04:35.005Z,21.80
2022-12-17T05:07:20.308Z,22.83
2022-12-17T05:10:05.390Z,24.05
2022-12-17T05:12:50.833Z,21.48
2022-12-17T05:15:36.325Z,18.63
2022-12-17T05:18:25.968Z,18.08
2022-12-17T05:21:11.530Z,20.02
2022-12-17T05:23:59.434Z,18.83
2022-12-17T05:26:47.516Z,24.63
2022-12-17T05:29:32.915Z,20.88
2022-12-17T05:32:18.487Z,20.10
2022-12-17T05:35:04.126Z,18.65
2022-12-17T05:37:49.740Z,24.83
2022-12-17T05:40:35.281Z,22.17
2022-12-17T05:43:23.601Z,23.65
2022-12-17T05:46:09.014Z,24.00
2022-12-17T05:48:54.678Z,29.25
2022-12-17T05:51:40.555Z,23.23
2022-12-17T05:54:27.983Z,18.98
2022-12-17T05:57:13.718Z,21.45
2022-12-17T05:59:59.182Z,19.30
2022-12-17T06:02:44.933Z,24.85
2022-12-17T06:05:30.761Z,21.30
2022-12-17T06:08:34.421Z,25.63
2022-12-17T06:11:19.965Z,24.00
2022-12-17T06:14:06.123Z,23.42
2022-12-17T06:16:51.606Z,18.70
2022-12-17T06:19:36.991Z,24.70
2022-12-17T06:22:22.352Z,24.70
2022-12-17T06:25:07.893Z,19.77
2022-12-17T06:27:53.565Z,25.05
2022-12-17T06:30:38.988Z,24.38
2022-12-17T06:33:29.223Z,22.20
2022-12-17T06:36:22.537Z,24.70
2022-12-17T06:39:13.119Z,29.20
2022-12-17T06:42:04.263Z,19.77
2022-12-17T06:44:50.401Z,23.48
2022-12-17T06:47:36.411Z,22.73
2022-12-17T06:50:22.310Z,26.70
2022-12-17T06:53:15.820Z,26.58
2022-12-17T06:56:01.309Z,21.80
2022-12-17T06:58:46.608Z,25.27
2022-12-17T07:01:32.292Z,28.60
2022-12-17T07:04:17.775Z,23.83
2022-12-17T07:07:03.153Z,26.48
2022-12-17T07:09:48.648Z,35.45
2022-12-17T07:12:33.892Z,38.13
2022-12-17T07:15:19.311Z,51.63
2022-12-17T07:18:18.966Z,68.05
2022-12-17T07:21:05.050Z,61.90
2022-12-17T07:23:50.516Z,81.82
2022-12-17T07:26:36.100Z,80.60
2022-12-17T07:29:21.582Z,89.60
2022-12-17T07:32:07.115Z,75.72
2022-12-17T07:34:52.424Z,69.05
2022-12-17T07:37:39.960Z,73.85
2022-12-17T07:40:26.012Z,83.70
2022-12-17T07:43:11.426Z,66.38
2022-12-17T07:45:56.914Z,67.30
2022-12-17T07:48:42.498Z,72.65
2022-12-17T07:51:28.007Z,77.20
2022-12-17T07:54:13.410Z,60.03
2022-12-17T07:56:58.924Z,59.15
2022-12-17T07:59:44.339Z,60.97
2022-12-17T08:02:30.239Z,62.10
2022-12-17T08:05:18.247Z,68.35
2022-12-17T08:08:03.519Z,63.30
2022-12-17T08:10:49.018Z,63.08
2022-12-17T08:13:34.463Z,61.88
2022-12-17T08:16:33.762Z,66.30
2022-12-17T08:19:19.302Z,65.28
2022-12-17T08:22:04.755Z,78.57
2022-12-17T08:24:50.079Z,75.63
2022-12-17T08:27:35.487Z,74.32
2022-12-17T08:30:21.099Z,77.65
2022-12-17T08:33:06.358Z,71.32
2022-12-17T08:35:51.700Z,84.82
2022-12-17T08:38:39.290Z,88.75
2022-12-17T08:41:24.644Z,72.93
2022-12-17T08:44:09.848Z,87.65
2022-12-17T08:46:55.275Z,89.00
2022-12-17T08:49:40.833Z,81.47
2022-12-17T08:52:26.228Z,84.38
2022-12-17T08:55:11.715Z,87.35
2022-12-17T08:57:57.111Z,85.20
2022-12-17T09:00:45.156Z,96.10
2022-12-17T09:03:32.698Z,100.00
2022-12-17T09:06:20.424Z,95.82
2022-12-17T09:09:05.592Z,95.05
2022-12-17T09:11:50.926Z,95.93
2022-12-17T09:14:36.415Z,88.97
2022-12-17T09:17:21.732Z,85.55
2022-12-17T09:20:09.224Z,98.38
2022-12-17T09:22:55.000Z,91.35
2022-12-17T09:25:40.489Z,101.35
2022-12-17T09:28:28.676Z,78.45
2022-12-17T09:31:18.428Z,102.40
2022-12-17T09:34:04.226Z,88.55
2022-12-17T09:36:51.418Z,94.25
2022-12-17T09:39:37.203Z,84.63
2022-12-17T09:42:59.696Z,89.68
2022-12-17T09:45:45.602Z,88.85
2022-12-17T09:49:09.387Z,87.03
2022-12-17T09:51:55.781Z,89.00
2022-12-17T09:54:45.682Z,91.65
2022-12-17T09:57:34.951Z,97.88
2022-12-17T10:00:32.191Z,106.38
2022-12-17T10:03:17.684Z,92.82
2022-12-17T10:06:05.103Z,87.93
2022-12-17T10:08:52.808Z,87.70
2022-12-17T10:11:48.818Z,94.55
2022-12-17T10:14:42.494Z,100.40
2022-12-17T10:17:38.024Z,89.40
2022-12-17T10:20:41.964Z,84.35
2022-12-17T10:23:27.330Z,88.75
2022-12-17T10:26:14.892Z,87.13
2022-12-17T10:29:00.509Z,91.75
2022-12-17T10:31:48.820Z,106.95
2022-12-17T10:34:38.208Z,76.38
2022-12-17T10:37:24.870Z,79.13
2022-12-17T10:40:15.385Z,87.57
2022-12-17T10:43:01.265Z,89.55
2022-12-17T10:45:53.884Z,82.90
2022-12-17T10:48:49.105Z,70.38
2022-12-17T10:51:55.688Z,70.90
2022-12-17T10:54:49.599Z,62.05
2022-12-17T11:00:55.465Z,74.40
2022-12-17T11:03:49.761Z,70.53
2022-12-17T11:06:54.598Z,77.63
2022-12-17T11:09:51.254Z,80.97
2022-12-17T11:12:38.889Z,77.57
2022-12-17T11:15:40.604Z,79.15
2022-12-17T11:18:36.204Z,68.88
2022-12-17T11:21:35.891Z,70.45
2022-12-17T11:24:22.919Z,59.30
2022-12-17T11:27:12.369Z,64.72
2022-12-17T11:29:57.986Z,71.43
2022-12-17T11:32:55.777Z,77.22
2022-12-17T11:36:06.740Z,77.68
2022-12-17T11:39:02.603Z,64.50
2022-12-17T11:42:10.835Z,68.05
2022-12-17T11:45:41.389Z,73.15
2022-12-17T11:48:37.625Z,66.22
2022-12-17T11:51:34.301Z,61.75
2022-12-17T11:54:41.667Z,59.85
2022-12-17T11:57:50.813Z,60.75
2022-12-17T12:00:38.820Z,61.83
2022-12-17T12:03:39.355Z,65.80
2022-12-17T12:06:50.108Z,68.88
2022-12-17T12:09:58.238Z,69.20
2022-12-17T12:13:02.586Z,64.75
2022-12-17T12:15:48.244Z,70.93
2022-12-17T12:18:45.200Z,67.15
2022-12-17T12:21:36.932Z,70.50
2022-12-17T12:24:25.287Z,68.63
2022-12-17T12:27:43.257Z,65.85
2022-12-17T12:30:48.244Z,69.35
2022-12-17T12:33:45.350Z,75.00
2022-12-17T12:36:37.959Z,71.75
2022-12-17T12:39:24.924Z,69.65
2022-12-17T12:42:36.809Z,71.40
2022-12-17T12:45:46.905Z,68.40
2022-12-17T12:48:53.533Z,69.30
2022-12-17T12:51:46.753Z,61.33
2022-12-17T12:55:02.858Z,69.20
2022-12-17T12:57:52.937Z,61.00
2022-12-17T13:00:56.395Z,61.42
2022-12-17T13:03:59.736Z,67.37
2022-12-17T13:06:49.565Z,76.57
2022-12-17T13:09:16.290Z,70.57
2022-12-17T13:12:02.518Z,72.57
2022-12-17T13:14:31.348Z,67.55
2022-12-17T13:17:07.312Z,75.63
2022-12-17T13:19:43.296Z,65.95
2022-12-17T13:22:24.283Z,69.00
2022-12-17T13:24:53.964Z,67.22
2022-12-17T13:27:35.926Z,68.53
2022-12-17T13:30:32.048Z,74.50
2022-12-17T13:33:04.403Z,68.57
2022-12-17T13:35:42.582Z,72.70
2022-12-17T13:38:14.801Z,71.40
2022-12-17T13:40:48.095Z,73.72
2022-12-17T13:43:21.406Z,70.72
2022-12-17T13:45:50.250Z,73.00
2022-12-17T13:48:23.132Z,79.10
2022-12-17T13:51:02.508Z,70.65
2022-12-17T13:53:33.812Z,73.20
2022-12-17T13:56:01.161Z,64.22
2022-12-17T13:58:31.422Z,69.75
2022-12-17T14:01:14.640Z,61.25
2022-12-17T14:04:07.622Z,69.43
2022-12-17T14:06:37.346Z,72.38
2022-12-17T14:09:04.365Z,71.85
2022-12-17T14:11:51.542Z,66.15
2022-12-17T14:14:35.353Z,63.05
2022-12-17T14:19:30.564Z,63.83
2022-12-17T14:21:59.579Z,66.88
2022-12-17T14:24:29.126Z,68.43
2022-12-17T14:27:02.470Z,65.60
2022-12-17T14:29:32.609Z,68.70
2022-12-17T14:32:05.018Z,71.40
2022-12-17T14:34:41.812Z,64.82
2022-12-17T14:37:17.467Z,68.35
2022-12-17T14:39:48.973Z,75.32
2022-12-17T14:42:25.948Z,74.68
2022-12-17T14:45:17.971Z,69.20
2022-12-17T14:48:01.803Z,80.32
2022-12-17T14:52:59.943Z,82.03
2022-12-17T14:55:36.099Z,83.50
2022-12-17T14:58:11.900Z,91.00
2022-12-17T15:00:44.276Z,83.65
2022-12-17T15:03:20.241Z,82.25
2022-12-17T15:05:56.660Z,84.45
2022-12-17T15:08:24.939Z,83.20
2022-12-17T15:10:51.780Z,78.07
2022-12-17T15:13:18.486Z,81.72
2022-12-17T15:15:45.387Z,85.20
2022-12-17T15:18:12.052Z,85.38
2022-12-17T15:20:38.880Z,79.55
2022-12-17T15:23:05.596Z,78.55
2022-12-17T15:25:32.224Z,78.63
2022-12-17T15:28:03.447Z,89.18
2022-12-17T15:30:30.139Z,77.90
2022-12-17T15:32:56.785Z,84.80
2022-12-17T15:35:28.900Z,85.32
2022-12-17T15:37:55.783Z,94.90
2022-12-17T15:40:22.463Z,85.15
2022-12-17T15:43:07.718Z,89.35
2022-12-17T15:45:34.469Z,85.50
2022-12-17T15:48:05.851Z,88.30
2022-12-17T15:50:35.114Z,81.90
2022-12-17T15:53:01.846Z,83.30
2022-12-17T15:55:28.686Z,80.57
2022-12-17T15:57:55.380Z,89.95
2022-12-17T16:00:22.449Z,82.18
2022-12-17T16:02:49.603Z,81.13
2022-12-17T16:05:16.947Z,78.93
2022-12-17T16:07:43.981Z,81.10
2022-12-17T16:10:14.436Z,86.25
2022-12-17T16:12:41.705Z,77.80
2022-12-17T16:15:09.995Z,86.60
2022-12-17T16:17:36.987Z,89.40
2022-12-17T16:20:05.637Z,82.57
2022-12-17T16:22:32.754Z,98.32
2022-12-17T16:25:04.954Z,92.95
2022-12-17T16:27:31.615Z,86.35
2022-12-17T16:30:00.577Z,91.78
2022-12-17T16:32:35.953Z,90.45
2022-12-17T16:35:04.701Z,88.38
2022-12-17T16:37:31.394Z,88.88
2022-12-17T16:40:00.167Z,96.05
2022-12-17T16:42:27.344Z,99.90
2022-12-17T16:44:54.089Z,100.70
2022-12-17T16:47:23.245Z,104.00
2022-12-17T16:49:52.967Z,91.15
2022-12-17T16:52:19.631Z,96.28
2022-12-17T16:54:46.283Z,84.00
2022-12-17T16:57:13.024Z,86.68
2022-12-17T16:59:39.865Z,93.97
2022-12-17T17:02:16.195Z,85.68
2022-12-17T17:04:45.484Z,84.70
2022-12-17T17:07:12.270Z,87.10
2022-12-17T17:09:39.347Z,83.57
2022-12-17T17:12:07.511Z,86.13
2022-12-17T17:14:34.286Z,90.05
2022-12-17T17:17:00.971Z,96.55
2022-12-17T17:19:27.680Z,90.18
2022-12-17T17:21:56.606Z,101.18
2022-12-17T17:24:25.371Z,97.22
2022-12-17T17:26:56.243Z,96.75
2022-12-17T17:29:25.527Z,103.03
2022-12-17T17:32:10.574Z,90.78
2022-12-17T17:34:41.051Z,86.55
2022-12-17T17:37:08.001Z,91.63
2022-12-17T17:39:34.718Z,90.10
2022-12-17T17:42:03.808Z,83.85
2022-12-17T17:44:30.479Z,92.63
2022-12-17T17:46:57.331Z,93.40
2022-12-17T17:49:24.594Z,105.78
2022-12-17T17:52:09.359Z,96.82
2022-12-17T17:54:36.872Z,100.40
2022-12-17T17:57:03.699Z,95.15
2022-12-17T17:59:34.254Z,96.90
2022-12-17T18:02:02.658Z,98.38
2022-12-17T18:04:29.787Z,96.20
2022-12-17T18:09:43.140Z,96.10
2022-12-17T18:12:28.241Z,106.38
2022-12-17T18:15:13.625Z,103.40
2022-12-17T18:17:41.327Z,98.45
2022-12-17T18:20:09.783Z,104.38
2022-12-17T18:22:38.808Z,98.07
2022-12-17T18:25:07.937Z,99.75
2022-12-17T18:27:37.346Z,106.88
2022-12-17T18:30:06.855Z,98.65
2022-12-17T18:32:33.515Z,92.63
2022-12-17T18:35:02.799Z,100.53
2022-12-17T18:37:32.122Z,102.82
2022-12-17T18:39:58.815Z,104.72
2022-12-17T18:42:44.312Z,98.53
2022-12-17T18:45:11.048Z,95.50
2022-12-17T18:47:37.668Z,103.85
2022-12-17T18:50:04.806Z,101.50
2022-12-17T18:52:31.463Z,98.35
2022-12-17T18:54:58.149Z,108.38
2022-12-17T18:57:24.739Z,97.15
2022-12-17T18:59:53.572Z,98.18
2022-12-17T19:02:20.312Z,95.65
2022-12-17T19:04:47.048Z,105.45
2022-12-17T19:07:13.991Z,100.53
2022-12-17T19:09:42.195Z,95.97
2022-12-17T19:12:09.851Z,99.28
2022-12-17T19:14:36.877Z,104.20
2022-12-17T19:17:04.166Z,102.80
2022-12-17T19:19:33.553Z,105.60
2022-12-17T19:22:00.503Z,96.10
2022-12-17T19:24:27.360Z,96.25
2022-12-17T19:26:54.314Z,104.68
2022-12-17T19:29:21.973Z,96.15
2022-12-17T19:31:49.244Z,98.05
2022-12-17T19:34:18.538Z,88.88
2022-12-17T19:36:48.461Z,89.00
2022-12-17T19:39:18.531Z,92.00
2022-12-17T19:41:45.444Z,107.13
2022-12-17T19:44:14.496Z,97.13
2022-12-17T19:46:44.042Z,89.38
2022-12-17T19:49:15.456Z,96.53
2022-12-17T19:51:44.269Z,94.07
2022-12-17T19:54:17.334Z,88.15
2022-12-17T19:56:46.581Z,103.90
2022-12-17T19:59:13.778Z,105.38
2022-12-17T20:01:46.396Z,88.97
2022-12-17T20:04:15.520Z,86.78
2022-12-17T20:06:43.446Z,95.18
2022-12-17T20:09:10.763Z,96.13
2022-12-17T20:11:37.773Z,95.88
2022-12-17T20:14:15.050Z,103.55
2022-12-17T20:16:47.971Z,90.18
2022-12-17T20:19:26.008Z,95.78
2022-12-17T20:21:53.722Z,85.72
2022-12-17T20:24:30.332Z,96.00
2022-12-17T20:26:58.159Z,94.38
2022-12-17T20:29:25.472Z,93.18
2022-12-17T20:31:53.639Z,94.38
2022-12-17T20:34:21.681Z,95.93
2022-12-17T20:36:51.116Z,90.95
2022-12-17T20:39:23.217Z,88.80
2022-12-17T20:41:53.189Z,99.68
2022-12-17T20:44:19.903Z,90.15
2022-12-17T20:46:46.719Z,101.88
2022-12-17T20:49:16.380Z,94.63
2022-12-17T20:51:43.312Z,87.35
2022-12-17T20:54:12.635Z,88.35
2022-12-17T20:56:40.358Z,88.88
2022-12-17T20:59:09.371Z,91.47
2022-12-17T21:01:37.119Z,96.18
2022-12-17T21:04:07.306Z,92.82
2022-12-17T21:06:49.971Z,81.78
2022-12-17T21:09:19.897Z,95.93
2022-12-17T21:11:46.588Z,94.80
2022-12-17T21:14:15.762Z,87.47
2022-12-17T21:16:43.357Z,91.53
2022-12-17T21:19:13.580Z,94.78
2022-12-17T21:21:40.469Z,92.97
2022-12-17T21:24:08.384Z,89.20
2022-12-17T21:26:38.240Z,82.38
2022-12-17T21:29:07.065Z,99.15
2022-12-17T21:31:38.177Z,98.72
2022-12-17T21:34:07.145Z,98.15
2022-12-17T21:36:34.976Z,96.03
2022-12-17T21:39:09.123Z,96.25
2022-12-17T21:41:38.905Z,96.00
2022-12-17T21:44:08.910Z,98.88
2022-12-17T21:46:38.160Z,92.25
2022-12-17T21:49:07.536Z,98.47
2022-12-17T21:51:36.961Z,96.05
2022-12-17T21:54:08.420Z,96.38
2022-12-17T21:56:35.778Z,95.53
2022-12-17T21:59:05.058Z,96.85
2022-12-17T22:01:33.918Z,95.03
2022-12-17T22:04:04.080Z,102.72
2022-12-17T22:06:35.973Z,99.40
2022-12-17T22:09:13.389Z,90.93
2022-12-17T22:11:48.892Z,95.60
2022-12-17T22:14:20.837Z,90.22
2022-12-17T22:16:51.016Z,88.97
2022-12-17T22:19:20.547Z,82.25
2022-12-17T22:21:54.699Z,81.22
2022-12-17T22:24:27.459Z,85.90
2022-12-17T22:27:00.310Z,83.32
2022-12-17T22:29:46.663Z,73.53
2022-12-17T22:32:32.722Z,86.38
2022-12-17T22:36:19.736Z,75.00
2022-12-17T22:41:24.161Z,83.10
2022-12-17T22:43:35.827Z,73.20
2022-12-17T22:44:49.498Z,75.20
2022-12-17T22:46:19.273Z,76.45
2022-12-17T22:48:46.428Z,69.03
2022-12-17T22:51:18.626Z,74.60
2022-12-17T22:53:56.592Z,69.70
2022-12-17T22:56:40.895Z,69.55
2022-12-17T22:59:16.330Z,78.95
2022-12-17T23:01:43.038Z,80.90
2022-12-17T23:04:14.053Z,78.80
2022-12-17T23:06:41.733Z,79.65
2022-12-17T23:09:08.530Z,72.25
2022-12-17T23:11:35.249Z,86.45
2022-12-17T23:14:01.829Z,82.82
2022-12-17T23:16:28.514Z,79.38
2022-12-17T23:18:55.657Z,74.28
2022-12-17T23:21:25.897Z,66.15
2022-12-17T23:23:53.729Z,68.30
2022-12-17T23:26:26.377Z,79.93
2022-12-17T23:28:58.449Z,75.80
2022-12-17T23:31:30.174Z,79.18
2022-12-17T23:33:57.135Z,69.78
2022-12-17T23:36:27.843Z,73.47
2022-12-17T23:38:56.413Z,71.75
2022-12-17T23:41:26.921Z,76.97
2022-12-17T23:43:56.605Z,81.28
2022-12-17T23:46:27.066Z,82.85
2022-12-17T23:48:54.398Z,79.55
2022-12-17T23:51:22.778Z,65.07
2022-12-17T23:53:49.457Z,76.13
2022-12-17T23:56:21.787Z,76.35
2022-12-17T23:58:51.959Z,82.03
